Time;durP1;ratioP1;P1;durP2;ratioP2;P2;SDS_P1;SDS_P2;PMS_P1;PMS_P2;Temp;Humidity;BMP_temperature;BMP_pressure;BME280_temperature;BME280_humidity;BME280_pressure;Samples;Min_cycle;Max_cycle;Signal;HPM_P1;HPM_P2
2024/03/28 00:00:17;;;;;;;5.30;2.70;;;;;;;;;;686602;28;2123;-81
2024/03/28 00:00:37;;;;;;;4.93;2.70;;;;;;;;;;687995;28;849;-81
2024/03/28 00:00:58;;;;;;;4.50;2.50;;;;;;;;;;683940;28;4315;-80
2024/03/28 00:01:18;;;;;;;5.27;2.50;;;;;;;;;;684041;28;1782;-80
2024/03/28 00:01:38;;;;;;;4.60;2.50;;;;;;;;;;682211;29;1323;-80
2024/03/28 00:01:59;;;;;;;3.70;2.43;;;;;;;;;;681370;29;1342;-81
2024/03/28 00:02:19;;;;;;;4.47;2.40;;;;;;;;;;679961;29;1822;-81
2024/03/28 00:02:39;;;;;;;3.70;2.40;;;;;;;;;;684463;28;1410;-80
2024/03/28 00:02:59;;;;;;;3.77;2.40;;;;;;;;;;682517;29;1346;-81
2024/03/28 00:03:20;;;;;;;3.73;2.40;;;;;;;;;;681824;28;1979;-80
2024/03/28 00:03:40;;;;;;;4.13;2.50;;;;;;;;;;685252;28;1170;-80
2024/03/28 00:04:00;;;;;;;4.40;2.30;;;;;;;;;;685593;28;4260;-80
2024/03/28 00:04:21;;;;;;;4.47;2.75;;;;;;;;;;684552;28;1830;-79
2024/03/28 00:04:41;;;;;;;4.77;3.10;;;;;;;;;;685431;28;1235;-80
2024/03/28 00:05:04;;;;;;;4.70;2.60;;;;;;;;;;683381;28;785;-80
2024/03/28 00:05:27;;;;;;;4.32;2.55;;;;;;;;;;686879;28;1263;-80
2024/03/28 00:05:54;;;;;;;4.43;2.70;;;;;;;;;;690797;28;1050;-81
2024/03/28 00:06:14;;;;;;;4.25;2.45;;;;;;;;;;689108;28;1004;-80
2024/03/28 00:06:35;;;;;;;5.23;2.50;;;;;;;;;;686278;28;1407;-81
2024/03/28 00:06:55;;;;;;;4.57;2.57;;;;;;;;;;684528;28;4484;-80
2024/03/28 00:07:15;;;;;;;5.47;2.80;;;;;;;;;;683343;28;1270;-80
2024/03/28 00:07:36;;;;;;;4.60;2.90;;;;;;;;;;685248;28;882;-81
2024/03/28 00:07:56;;;;;;;4.85;2.83;;;;;;;;;;684878;28;1639;-80
2024/03/28 00:08:17;;;;;;;4.70;2.80;;;;;;;;;;684002;28;993;-80
2024/03/28 00:08:37;;;;;;;4.90;3.00;;;;;;;;;;688096;28;1194;-81
2024/03/28 00:08:57;;;;;;;4.70;2.58;;;;;;;;;;688062;28;1249;-80
2024/03/28 00:09:18;;;;;;;3.90;2.30;;;;;;;;;;686779;28;1139;-80
2024/03/28 00:09:38;;;;;;;5.27;2.40;;;;;;;;;;682477;28;1493;-81
2024/03/28 00:09:58;;;;;;;5.32;2.70;;;;;;;;;;679972;29;4291;-80
2024/03/28 00:10:18;;;;;;;5.03;2.70;;;;;;;;;;681586;28;1133;-79
2024/03/28 00:10:46;;;;;;;5.15;2.70;;;;;;;;;;680572;29;975;-81
2024/03/28 00:11:06;;;;;;;4.50;2.53;;;;;;;;;;680507;29;1424;-80
2024/03/28 00:11:28;;;;;;;4.60;2.78;;;;;;;;;;682171;28;1235;-80
2024/03/28 00:11:49;;;;;;;4.38;2.70;;;;;;;;;;682790;29;854;-79
2024/03/28 00:12:09;;;;;;;3.93;2.50;;;;;;;;;;681545;28;920;-80
2024/03/28 00:12:29;;;;;;;5.03;2.70;;;;;;;;;;682510;29;786;-80
2024/03/28 00:12:49;;;;;;;5.43;2.67;;;;;;;;;;685240;28;1833;-81
2024/03/28 00:13:10;;;;;;;5.47;2.70;;;;;;;;;;684183;28;4252;-80
2024/03/28 00:13:30;;;;;;;4.83;2.70;;;;;;;;;;684663;28;1261;-80
2024/03/28 00:13:50;;;;;;;4.20;2.70;;;;;;;;;;684438;28;1002;-80
2024/03/28 00:14:11;;;;;;;4.10;2.70;;;;;;;;;;681280;28;1125;-80
2024/03/28 00:14:32;;;;;;;4.10;2.70;;;;;;;;;;684849;28;1792;-79
2024/03/28 00:14:52;;;;;;;4.30;2.78;;;;;;;;;;682289;29;1346;-80
2024/03/28 00:15:12;;;;;;;3.90;2.80;;;;;;;;;;680900;28;1154;-81
2024/03/28 00:15:32;;;;;;;5.07;2.80;;;;;;;;;;679638;29;925;-80
2024/03/28 00:16:00;;;;;;;4.83;2.77;;;;;;;;;;682158;29;4498;-80
2024/03/28 00:16:20;;;;;;;4.47;2.70;;;;;;;;;;680038;28;1047;-80
2024/03/28 00:16:41;;;;;;;4.13;2.80;;;;;;;;;;686207;28;865;-80
2024/03/28 00:17:02;;;;;;;5.03;2.55;;;;;;;;;;688981;28;837;-80
2024/03/28 00:17:22;;;;;;;4.47;2.63;;;;;;;;;;687113;28;1335;-80
2024/03/28 00:17:42;;;;;;;4.70;2.70;;;;;;;;;;684571;28;2009;-81
2024/03/28 00:18:05;;;;;;;4.67;2.73;;;;;;;;;;685234;28;1303;-80
2024/03/28 00:18:26;;;;;;;4.32;2.55;;;;;;;;;;680195;28;1406;-80
2024/03/28 00:18:46;;;;;;;4.05;2.30;;;;;;;;;;682803;28;1313;-80
2024/03/28 00:19:06;;;;;;;4.00;2.47;;;;;;;;;;682097;28;4295;-80
2024/03/28 00:19:27;;;;;;;4.50;2.60;;;;;;;;;;679060;29;1906;-81
2024/03/28 00:19:47;;;;;;;5.00;2.57;;;;;;;;;;679561;29;1299;-79
2024/03/28 00:20:07;;;;;;;4.50;2.70;;;;;;;;;;681960;29;1256;-81
2024/03/28 00:20:28;;;;;;;4.80;2.80;;;;;;;;;;683664;28;1200;-81
2024/03/28 00:20:54;;;;;;;4.47;2.70;;;;;;;;;;681666;28;1257;-79
2024/03/28 00:21:15;;;;;;;4.47;2.65;;;;;;;;;;680925;28;1010;-80
2024/03/28 00:21:35;;;;;;;4.30;2.43;;;;;;;;;;682989;28;1316;-80
2024/03/28 00:21:56;;;;;;;4.88;2.90;;;;;;;;;;684155;28;4508;-80
2024/03/28 00:22:16;;;;;;;4.38;2.75;;;;;;;;;;686971;28;1272;-81
2024/03/28 00:22:36;;;;;;;4.23;2.53;;;;;;;;;;686013;28;1919;-81
2024/03/28 00:23:00;;;;;;;4.40;2.80;;;;;;;;;;685407;28;842;-80
2024/03/28 00:23:20;;;;;;;4.18;2.70;;;;;;;;;;687216;28;1236;-81
2024/03/28 00:23:40;;;;;;;4.30;2.80;;;;;;;;;;687537;28;1229;-80
2024/03/28 00:24:01;;;;;;;3.87;2.57;;;;;;;;;;684740;28;1669;-80
2024/03/28 00:24:21;;;;;;;4.20;2.60;;;;;;;;;;684372;28;944;-80
2024/03/28 00:24:42;;;;;;;4.20;2.60;;;;;;;;;;685746;28;765;-81
2024/03/28 00:25:02;;;;;;;4.90;2.67;;;;;;;;;;681738;28;4325;-80
2024/03/28 00:25:23;;;;;;;4.05;2.50;;;;;;;;;;681846;28;1338;-80
2024/03/28 00:25:50;;;;;;;4.30;2.73;;;;;;;;;;682511;28;1807;-80
2024/03/28 00:26:12;;;;;;;3.90;2.50;;;;;;;;;;685139;28;1001;-80
2024/03/28 00:26:33;;;;;;;4.55;2.58;;;;;;;;;;684882;28;1370;-81
2024/03/28 00:26:53;;;;;;;4.20;2.60;;;;;;;;;;687188;28;999;-80
2024/03/28 00:27:13;;;;;;;4.63;2.67;;;;;;;;;;684888;28;1603;-80
2024/03/28 00:27:33;;;;;;;4.23;2.60;;;;;;;;;;686517;28;1181;-80
2024/03/28 00:27:54;;;;;;;5.10;2.70;;;;;;;;;;687216;28;4329;-81
2024/03/28 00:28:14;;;;;;;4.77;2.53;;;;;;;;;;680997;28;1395;-80
2024/03/28 00:28:34;;;;;;;4.30;2.65;;;;;;;;;;679384;29;1162;-79
2024/03/28 00:28:54;;;;;;;4.07;2.70;;;;;;;;;;681501;29;1258;-81
2024/03/28 00:29:15;;;;;;;4.20;2.90;;;;;;;;;;681104;28;1016;-80
2024/03/28 00:29:35;;;;;;;4.70;3.00;;;;;;;;;;682471;29;1302;-80
2024/03/28 00:29:55;;;;;;;4.70;2.70;;;;;;;;;;682261;29;1253;-80
2024/03/28 00:30:15;;;;;;;4.13;2.50;;;;;;;;;;681200;28;1112;-79
2024/03/28 00:30:36;;;;;;;3.85;2.47;;;;;;;;;;682018;29;1229;-80
2024/03/28 00:30:56;;;;;;;4.57;2.63;;;;;;;;;;684603;28;4334;-80
2024/03/28 00:31:16;;;;;;;4.80;2.57;;;;;;;;;;686807;28;1453;-80
2024/03/28 00:31:36;;;;;;;4.57;2.67;;;;;;;;;;684265;28;1293;-80
2024/03/28 00:31:57;;;;;;;4.57;2.73;;;;;;;;;;682743;29;1503;-80
2024/03/28 00:32:17;;;;;;;4.17;2.73;;;;;;;;;;682076;28;1888;-81
2024/03/28 00:32:37;;;;;;;5.07;2.70;;;;;;;;;;684976;28;857;-80
2024/03/28 00:32:57;;;;;;;4.55;2.50;;;;;;;;;;684657;28;1165;-80
2024/03/28 00:33:18;;;;;;;4.80;2.50;;;;;;;;;;683427;28;1186;-81
2024/03/28 00:33:38;;;;;;;4.90;2.50;;;;;;;;;;684774;28;1310;-79
2024/03/28 00:33:58;;;;;;;4.90;2.57;;;;;;;;;;682389;28;4342;-80
2024/03/28 00:34:19;;;;;;;4.67;2.60;;;;;;;;;;681181;28;1019;-80
2024/03/28 00:34:39;;;;;;;4.80;2.80;;;;;;;;;;684396;28;1419;-80
2024/03/28 00:35:00;;;;;;;4.70;2.95;;;;;;;;;;683424;28;1496;-80
2024/03/28 00:35:20;;;;;;;5.40;2.97;;;;;;;;;;681142;28;1169;-81
2024/03/28 00:35:44;;;;;;;5.40;3.20;;;;;;;;;;682323;28;1348;-80
2024/03/28 00:36:04;;;;;;;5.30;2.80;;;;;;;;;;682484;29;2087;-80
2024/03/28 00:36:25;;;;;;;4.47;2.77;;;;;;;;;;681252;28;1320;-80
2024/03/28 00:36:45;;;;;;;5.00;2.83;;;;;;;;;;684015;28;1276;-80
2024/03/28 00:37:06;;;;;;;4.30;2.70;;;;;;;;;;680742;28;4567;-80
2024/03/28 00:37:26;;;;;;;4.50;2.77;;;;;;;;;;681245;28;960;-80
2024/03/28 00:37:47;;;;;;;4.60;2.80;;;;;;;;;;685138;28;1557;-80
2024/03/28 00:38:07;;;;;;;5.13;2.83;;;;;;;;;;690347;28;1057;-80
2024/03/28 00:38:27;;;;;;;4.80;2.93;;;;;;;;;;686231;28;1514;-79
2024/03/28 00:38:47;;;;;;;4.60;2.60;;;;;;;;;;684948;28;1278;-80
2024/03/28 00:39:09;;;;;;;4.90;2.80;;;;;;;;;;682426;29;1077;-80
2024/03/28 00:39:29;;;;;;;4.38;2.70;;;;;;;;;;677477;29;1966;-80
2024/03/28 00:39:49;;;;;;;4.33;2.47;;;;;;;;;;679775;29;1545;-81
2024/03/28 00:40:10;;;;;;;5.18;2.70;;;;;;;;;;681625;29;4286;-81
2024/03/28 00:40:31;;;;;;;5.50;2.80;;;;;;;;;;683110;28;1059;-79
2024/03/28 00:40:52;;;;;;;4.87;2.63;;;;;;;;;;688738;28;1341;-80
2024/03/28 00:41:17;;;;;;;4.30;2.60;;;;;;;;;;688088;28;919;-80
2024/03/28 00:41:37;;;;;;;4.07;2.55;;;;;;;;;;692445;28;1423;-80
2024/03/28 00:41:57;;;;;;;4.18;2.65;;;;;;;;;;691179;28;1302;-80
2024/03/28 00:42:18;;;;;;;4.07;2.37;;;;;;;;;;689881;28;1069;-81
2024/03/28 00:42:38;;;;;;;6.10;2.45;;;;;;;;;;687385;28;904;-80
2024/03/28 00:42:59;;;;;;;6.40;2.67;;;;;;;;;;691108;28;4279;-80
2024/03/28 00:43:19;;;;;;;4.40;2.60;;;;;;;;;;690298;28;1775;-79
2024/03/28 00:43:39;;;;;;;4.07;2.57;;;;;;;;;;689293;28;1317;-80
2024/03/28 00:44:00;;;;;;;4.50;2.50;;;;;;;;;;687861;28;1067;-79
2024/03/28 00:44:20;;;;;;;4.50;2.57;;;;;;;;;;688953;28;1007;-81
2024/03/28 00:44:40;;;;;;;4.70;2.70;;;;;;;;;;687462;28;1349;-81
2024/03/28 00:45:00;;;;;;;5.67;2.70;;;;;;;;;;682483;29;1837;-80
2024/03/28 00:45:21;;;;;;;5.07;2.70;;;;;;;;;;678825;29;1525;-81
2024/03/28 00:45:41;;;;;;;6.63;3.13;;;;;;;;;;682212;29;1126;-80
2024/03/28 00:46:02;;;;;;;6.45;3.10;;;;;;;;;;684038;28;5164;-81
2024/03/28 00:46:22;;;;;;;4.10;2.70;;;;;;;;;;681545;28;917;-80
2024/03/28 00:46:42;;;;;;;4.32;2.55;;;;;;;;;;678875;29;1339;-80
2024/03/28 00:47:03;;;;;;;4.10;2.40;;;;;;;;;;680259;29;1147;-80
2024/03/28 00:47:25;;;;;;;4.10;2.43;;;;;;;;;;683852;28;1142;-80
2024/03/28 00:47:46;;;;;;;4.32;2.80;;;;;;;;;;685735;28;897;-80
2024/03/28 00:48:06;;;;;;;3.80;2.57;;;;;;;;;;685082;28;1870;-80
2024/03/28 00:48:26;;;;;;;4.03;2.53;;;;;;;;;;686529;28;1213;-80
2024/03/28 00:48:46;;;;;;;3.90;2.50;;;;;;;;;;682041;28;1399;-80
2024/03/28 00:49:07;;;;;;;4.70;2.70;;;;;;;;;;687122;28;4271;-80
2024/03/28 00:49:28;;;;;;;5.20;2.63;;;;;;;;;;683411;28;1211;-80
2024/03/28 00:49:51;;;;;;;4.00;2.45;;;;;;;;;;684400;28;3984;-81
2024/03/28 00:50:11;;;;;;;4.28;2.40;;;;;;;;;;682391;29;1395;-80
2024/03/28 00:50:32;;;;;;;4.60;2.50;;;;;;;;;;681059;28;1412;-80
2024/03/28 00:50:59;;;;;;;4.17;2.63;;;;;;;;;;681568;29;1045;-80
2024/03/28 00:51:20;;;;;;;4.55;2.70;;;;;;;;;;685103;28;1711;-81
2024/03/28 00:51:42;;;;;;;4.27;2.43;;;;;;;;;;681419;29;1243;-80
2024/03/28 00:52:02;;;;;;;4.18;2.50;;;;;;;;;;682759;28;4297;-79
2024/03/28 00:52:23;;;;;;;5.00;2.60;;;;;;;;;;686551;28;1529;-79
2024/03/28 00:52:44;;;;;;;5.30;3.00;;;;;;;;;;683614;28;1339;-79
2024/03/28 00:53:04;;;;;;;4.70;2.67;;;;;;;;;;684752;28;1214;-81
2024/03/28 00:53:24;;;;;;;4.20;2.60;;;;;;;;;;680136;28;1319;-80
2024/03/28 00:53:45;;;;;;;4.37;2.40;;;;;;;;;;684850;28;1090;-80
2024/03/28 00:54:05;;;;;;;5.30;2.80;;;;;;;;;;682323;29;1868;-81
2024/03/28 00:54:25;;;;;;;4.22;2.65;;;;;;;;;;681493;28;1294;-79
2024/03/28 00:54:48;;;;;;;3.93;2.40;;;;;;;;;;681951;29;885;-80
2024/03/28 00:55:08;;;;;;;4.47;2.75;;;;;;;;;;684542;28;4316;-80
2024/03/28 00:55:29;;;;;;;3.93;2.50;;;;;;;;;;684391;28;1879;-80
2024/03/28 00:55:49;;;;;;;3.95;2.58;;;;;;;;;;685161;28;1878;-80
2024/03/28 00:56:10;;;;;;;4.30;2.70;;;;;;;;;;687867;28;1373;-80
2024/03/28 00:56:30;;;;;;;4.07;2.40;;;;;;;;;;686781;28;1551;-80
2024/03/28 00:56:50;;;;;;;4.93;2.50;;;;;;;;;;684967;28;1226;-80
2024/03/28 00:57:11;;;;;;;4.10;2.50;;;;;;;;;;690226;28;1538;-80
2024/03/28 00:57:31;;;;;;;4.07;2.47;;;;;;;;;;691758;28;1692;-80
2024/03/28 00:57:52;;;;;;;4.15;2.40;;;;;;;;;;690179;28;4423;-80
2024/03/28 00:58:13;;;;;;;4.10;2.70;;;;;;;;;;690150;28;1169;-81
2024/03/28 00:58:33;;;;;;;6.05;3.20;;;;;;;;;;687096;28;1164;-81
2024/03/28 00:58:53;;;;;;;5.37;3.10;;;;;;;;;;682681;28;1311;-80
2024/03/28 00:59:13;;;;;;;4.10;2.60;;;;;;;;;;681184;28;1762;-80
2024/03/28 00:59:34;;;;;;;4.72;2.60;;;;;;;;;;682043;29;1981;-80
2024/03/28 00:59:54;;;;;;;5.50;2.70;;;;;;;;;;682391;29;1247;-80
2024/03/28 01:00:14;;;;;;;4.60;2.73;;;;;;;;;;681400;28;1163;-80
2024/03/28 01:00:34;;;;;;;4.45;2.80;;;;;;;;;;683221;28;2617;-80
2024/03/28 01:00:55;;;;;;;4.40;2.80;;;;;;;;;;677901;29;4500;-81
2024/03/28 01:01:15;;;;;;;4.33;2.87;;;;;;;;;;678614;29;1780;-80
2024/03/28 01:01:35;;;;;;;4.88;2.60;;;;;;;;;;679893;29;952;-80
2024/03/28 01:01:56;;;;;;;4.83;2.70;;;;;;;;;;679737;29;1176;-81
2024/03/28 01:02:16;;;;;;;4.70;2.70;;;;;;;;;;675844;29;2478;-79
2024/03/28 01:02:36;;;;;;;4.87;2.53;;;;;;;;;;680063;28;786;-80
2024/03/28 01:02:57;;;;;;;4.77;2.57;;;;;;;;;;680891;29;1555;-80
2024/03/28 01:03:17;;;;;;;4.43;2.63;;;;;;;;;;678766;29;1647;-80
2024/03/28 01:03:37;;;;;;;4.73;2.70;;;;;;;;;;675910;29;769;-80
2024/03/28 01:03:57;;;;;;;4.70;2.70;;;;;;;;;;677633;29;4293;-80
2024/03/28 01:04:18;;;;;;;4.13;2.70;;;;;;;;;;681584;28;2260;-80
2024/03/28 01:04:38;;;;;;;4.50;2.63;;;;;;;;;;682083;28;1530;-79
2024/03/28 01:04:58;;;;;;;4.77;2.53;;;;;;;;;;682677;28;973;-80
2024/03/28 01:05:20;;;;;;;4.30;2.50;;;;;;;;;;681813;28;1749;-79
2024/03/28 01:05:40;;;;;;;3.85;2.40;;;;;;;;;;679709;29;1382;-80
2024/03/28 01:06:01;;;;;;;4.25;2.50;;;;;;;;;;682368;29;1288;-80
2024/03/28 01:06:21;;;;;;;4.10;2.60;;;;;;;;;;681137;28;1497;-80
2024/03/28 01:06:41;;;;;;;4.38;2.75;;;;;;;;;;686136;28;1213;-79
2024/03/28 01:07:03;;;;;;;4.57;2.70;;;;;;;;;;685946;28;4321;-80
2024/03/28 01:07:23;;;;;;;4.85;2.80;;;;;;;;;;683930;28;2200;-80
2024/03/28 01:07:43;;;;;;;4.88;2.92;;;;;;;;;;685934;28;1277;-80
2024/03/28 01:08:04;;;;;;;4.50;2.60;;;;;;;;;;687479;28;1528;-80
2024/03/28 01:08:25;;;;;;;4.65;2.60;;;;;;;;;;679341;28;2148;-80
2024/03/28 01:08:45;;;;;;;4.88;2.70;;;;;;;;;;678941;29;1324;-81
2024/03/28 01:09:05;;;;;;;4.23;2.60;;;;;;;;;;679810;29;885;-80
2024/03/28 01:09:25;;;;;;;3.67;2.33;;;;;;;;;;677563;29;1897;-80
2024/03/28 01:09:46;;;;;;;4.20;2.53;;;;;;;;;;679323;29;1552;-80
2024/03/28 01:10:07;;;;;;;3.97;2.40;;;;;;;;;;679227;29;4276;-80
2024/03/28 01:10:27;;;;;;;4.00;2.70;;;;;;;;;;677783;29;1563;-80
2024/03/28 01:10:48;;;;;;;4.00;2.58;;;;;;;;;;682408;29;1166;-80
2024/03/28 01:11:08;;;;;;;4.27;2.80;;;;;;;;;;683242;28;1463;-81
2024/03/28 01:11:29;;;;;;;4.60;2.67;;;;;;;;;;680423;28;1928;-80
2024/03/28 01:11:49;;;;;;;4.38;2.53;;;;;;;;;;685311;28;1299;-81
2024/03/28 01:12:09;;;;;;;4.73;2.30;;;;;;;;;;684576;28;1113;-80
2024/03/28 01:12:32;;;;;;;4.47;2.50;;;;;;;;;;683614;28;1689;-80
2024/03/28 01:12:54;;;;;;;4.45;2.90;;;;;;;;;;687790;28;4309;-80
2024/03/28 01:13:15;;;;;;;5.03;2.93;;;;;;;;;;683190;28;1092;-79
2024/03/28 01:13:35;;;;;;;4.93;2.70;;;;;;;;;;683914;28;1384;-80
2024/03/28 01:13:55;;;;;;;4.22;2.40;;;;;;;;;;683454;28;984;-80
2024/03/28 01:14:16;;;;;;;4.30;2.50;;;;;;;;;;680504;28;1549;-80
2024/03/28 01:14:36;;;;;;;5.03;3.00;;;;;;;;;;682242;28;1426;-80
2024/03/28 01:14:57;;;;;;;4.77;2.80;;;;;;;;;;682378;29;1383;-80
2024/03/28 01:15:17;;;;;;;4.55;2.80;;;;;;;;;;680389;28;1740;-81
2024/03/28 01:15:38;;;;;;;4.60;2.70;;;;;;;;;;682352;29;798;-81
2024/03/28 01:15:58;;;;;;;4.80;2.80;;;;;;;;;;682183;28;4440;-80
2024/03/28 01:16:18;;;;;;;4.60;2.90;;;;;;;;;;681466;28;1762;-80
2024/03/28 01:16:41;;;;;;;4.93;2.90;;;;;;;;;;682055;28;1809;-81
2024/03/28 01:17:01;;;;;;;5.00;2.85;;;;;;;;;;682572;29;842;-80
2024/03/28 01:17:22;;;;;;;4.50;2.80;;;;;;;;;;683756;28;1669;-79
2024/03/28 01:17:42;;;;;;;4.27;2.70;;;;;;;;;;682321;28;1407;-80
2024/03/28 01:18:03;;;;;;;4.80;2.70;;;;;;;;;;679892;29;1227;-80
2024/03/28 01:18:23;;;;;;;5.20;2.87;;;;;;;;;;681722;28;1699;-81
2024/03/28 01:18:43;;;;;;;4.72;2.72;;;;;;;;;;681969;29;1280;-80
2024/03/28 01:19:04;;;;;;;4.73;2.90;;;;;;;;;;681297;28;4377;-81
2024/03/28 01:19:29;;;;;;;4.23;2.70;;;;;;;;;;680972;28;1903;-79
2024/03/28 01:19:50;;;;;;;4.70;2.50;;;;;;;;;;682145;28;1146;-80
2024/03/28 01:20:11;;;;;;;4.57;2.88;;;;;;;;;;684244;28;785;-80
2024/03/28 01:20:31;;;;;;;6.32;3.00;;;;;;;;;;682249;28;1602;-80
2024/03/28 01:20:52;;;;;;;6.23;2.93;;;;;;;;;;682242;28;1228;-80
2024/03/28 01:21:18;;;;;;;5.47;2.67;;;;;;;;;;681392;28;1778;-79
2024/03/28 01:21:38;;;;;;;4.10;2.58;;;;;;;;;;681644;29;1654;-80
2024/03/28 01:21:58;;;;;;;4.53;2.80;;;;;;;;;;680385;28;4533;-79
2024/03/28 01:22:19;;;;;;;4.97;2.90;;;;;;;;;;680910;28;1810;-80
2024/03/28 01:22:39;;;;;;;4.87;2.80;;;;;;;;;;679560;29;1165;-80
2024/03/28 01:23:00;;;;;;;4.50;2.70;;;;;;;;;;680150;29;1237;-79
2024/03/28 01:23:20;;;;;;;4.53;2.60;;;;;;;;;;680725;28;1815;-80
2024/03/28 01:23:40;;;;;;;4.23;2.50;;;;;;;;;;681537;29;936;-80
2024/03/28 01:24:01;;;;;;;4.70;2.55;;;;;;;;;;682682;28;1201;-80
2024/03/28 01:24:21;;;;;;;5.40;2.93;;;;;;;;;;681362;28;1154;-80
2024/03/28 01:24:41;;;;;;;5.10;2.90;;;;;;;;;;682306;29;1233;-80
2024/03/28 01:25:02;;;;;;;4.28;2.50;;;;;;;;;;678481;29;4391;-80
2024/03/28 01:25:22;;;;;;;4.38;2.60;;;;;;;;;;678047;29;2351;-80
2024/03/28 01:25:42;;;;;;;4.60;2.80;;;;;;;;;;683027;28;1290;-80
2024/03/28 01:26:03;;;;;;;4.30;2.80;;;;;;;;;;683377;28;976;-80
2024/03/28 01:26:23;;;;;;;4.53;2.57;;;;;;;;;;683708;28;1540;-81
2024/03/28 01:26:44;;;;;;;4.80;2.53;;;;;;;;;;682719;28;1448;-81
2024/03/28 01:27:04;;;;;;;4.00;2.50;;;;;;;;;;677007;28;1098;-80
2024/03/28 01:27:24;;;;;;;4.50;2.63;;;;;;;;;;681229;28;1736;-81
2024/03/28 01:27:45;;;;;;;4.50;2.80;;;;;;;;;;683201;28;1324;-80
2024/03/28 01:28:13;;;;;;;4.75;2.90;;;;;;;;;;683377;28;4302;-80
2024/03/28 01:28:36;;;;;;;4.95;2.70;;;;;;;;;;681167;28;1783;-80
2024/03/28 01:28:56;;;;;;;5.38;2.80;;;;;;;;;;682495;29;896;-81
2024/03/28 01:29:17;;;;;;;4.80;2.83;;;;;;;;;;686581;28;1153;-80
2024/03/28 01:29:37;;;;;;;4.60;2.90;;;;;;;;;;687666;28;1232;-79
2024/03/28 01:29:57;;;;;;;5.03;2.97;;;;;;;;;;687285;28;1334;-80
2024/03/28 01:30:20;;;;;;;5.13;2.67;;;;;;;;;;683705;28;2057;-80
2024/03/28 01:30:40;;;;;;;3.93;2.60;;;;;;;;;;682537;29;1442;-80
2024/03/28 01:31:04;;;;;;;5.30;2.70;;;;;;;;;;681898;28;4329;-80
2024/03/28 01:31:24;;;;;;;4.50;2.90;;;;;;;;;;680853;28;1307;-80
2024/03/28 01:31:44;;;;;;;5.43;2.80;;;;;;;;;;682132;29;1416;-80
2024/03/28 01:32:05;;;;;;;5.17;2.80;;;;;;;;;;682157;29;1004;-80
2024/03/28 01:32:25;;;;;;;4.90;2.80;;;;;;;;;;683902;28;1354;-80
2024/03/28 01:32:45;;;;;;;4.75;2.78;;;;;;;;;;684701;28;904;-80
2024/03/28 01:33:06;;;;;;;5.07;2.80;;;;;;;;;;684429;28;1187;-80
2024/03/28 01:33:26;;;;;;;4.60;2.77;;;;;;;;;;681344;28;1296;-80
2024/03/28 01:33:46;;;;;;;4.60;2.78;;;;;;;;;;681219;29;1043;-80
2024/03/28 01:34:06;;;;;;;4.37;2.80;;;;;;;;;;679908;29;4270;-80
2024/03/28 01:34:27;;;;;;;5.07;2.67;;;;;;;;;;682716;28;1285;-81
2024/03/28 01:34:47;;;;;;;5.10;2.67;;;;;;;;;;680173;29;1250;-81
2024/03/28 01:35:07;;;;;;;4.93;2.90;;;;;;;;;;680649;29;1164;-81
2024/03/28 01:35:28;;;;;;;4.50;2.88;;;;;;;;;;684230;28;1256;-80
2024/03/28 01:35:48;;;;;;;4.70;2.70;;;;;;;;;;684286;28;1184;-80
2024/03/28 01:36:08;;;;;;;5.43;2.83;;;;;;;;;;683217;28;1419;-80
2024/03/28 01:36:29;;;;;;;5.10;3.08;;;;;;;;;;683779;28;1142;-80
2024/03/28 01:36:49;;;;;;;5.13;2.90;;;;;;;;;;678751;29;1236;-80
2024/03/28 01:37:09;;;;;;;4.90;2.77;;;;;;;;;;679240;29;4345;-80
2024/03/28 01:37:29;;;;;;;4.47;2.78;;;;;;;;;;677448;29;1351;-80
2024/03/28 01:37:50;;;;;;;4.90;2.90;;;;;;;;;;679578;29;858;-80
2024/03/28 01:38:10;;;;;;;4.57;2.67;;;;;;;;;;679908;28;933;-80
2024/03/28 01:38:30;;;;;;;5.07;2.70;;;;;;;;;;681541;28;1053;-80
2024/03/28 01:38:51;;;;;;;5.23;2.97;;;;;;;;;;681930;28;1317;-80
2024/03/28 01:39:11;;;;;;;5.30;2.90;;;;;;;;;;685318;28;1225;-80
2024/03/28 01:39:35;;;;;;;4.63;2.90;;;;;;;;;;684070;28;2418;-79
2024/03/28 01:39:55;;;;;;;5.15;2.70;;;;;;;;;;683758;28;5065;-80
2024/03/28 01:40:15;;;;;;;4.53;2.70;;;;;;;;;;683543;28;1336;-80
2024/03/28 01:40:36;;;;;;;4.90;2.60;;;;;;;;;;681931;28;1281;-80
2024/03/28 01:40:57;;;;;;;4.95;2.72;;;;;;;;;;680572;29;1277;-80
2024/03/28 01:41:17;;;;;;;4.45;2.60;;;;;;;;;;679801;28;877;-80
2024/03/28 01:41:40;;;;;;;4.95;2.72;;;;;;;;;;682144;28;881;-80
2024/03/28 01:42:03;;;;;;;5.80;2.80;;;;;;;;;;682777;28;1562;-80
2024/03/28 01:42:23;;;;;;;5.13;2.90;;;;;;;;;;684499;28;1270;-80
2024/03/28 01:42:44;;;;;;;5.47;3.30;;;;;;;;;;687199;28;913;-81
2024/03/28 01:43:07;;;;;;;4.73;3.00;;;;;;;;;;685251;28;4231;-80
2024/03/28 01:43:28;;;;;;;4.70;3.08;;;;;;;;;;684014;28;1181;-79
2024/03/28 01:43:48;;;;;;;4.70;3.00;;;;;;;;;;685114;28;750;-80
2024/03/28 01:44:09;;;;;;;5.18;2.80;;;;;;;;;;682346;28;1496;-80
2024/03/28 01:44:30;;;;;;;4.32;2.80;;;;;;;;;;680475;28;1105;-80
2024/03/28 01:44:50;;;;;;;4.20;2.67;;;;;;;;;;681806;28;1271;-80
2024/03/28 01:45:11;;;;;;;4.10;2.72;;;;;;;;;;682398;28;1351;-80
2024/03/28 01:45:32;;;;;;;4.13;2.60;;;;;;;;;;680440;28;2244;-80
2024/03/28 01:45:52;;;;;;;4.80;2.70;;;;;;;;;;681069;29;4373;-80
2024/03/28 01:46:16;;;;;;;5.60;2.83;;;;;;;;;;681621;28;5080;-80
2024/03/28 01:46:38;;;;;;;4.20;2.78;;;;;;;;;;679705;29;1302;-80
2024/03/28 01:46:58;;;;;;;4.18;2.78;;;;;;;;;;682872;28;1276;-80
2024/03/28 01:47:19;;;;;;;4.60;2.93;;;;;;;;;;684466;28;1870;-79
2024/03/28 01:47:41;;;;;;;4.20;2.72;;;;;;;;;;683718;28;1758;-80
2024/03/28 01:48:02;;;;;;;4.65;2.60;;;;;;;;;;683651;28;1213;-80
2024/03/28 01:48:22;;;;;;;4.17;2.60;;;;;;;;;;683866;28;2117;-80
2024/03/28 01:48:43;;;;;;;4.10;2.70;;;;;;;;;;684554;28;1513;-79
2024/03/28 01:49:04;;;;;;;4.13;2.70;;;;;;;;;;683887;28;5636;-80
2024/03/28 01:49:27;;;;;;;4.37;2.60;;;;;;;;;;688840;28;1775;-80
2024/03/28 01:49:50;;;;;;;3.90;2.50;;;;;;;;;;685017;28;1587;-80
2024/03/28 01:50:11;;;;;;;4.00;2.53;;;;;;;;;;683337;28;1240;-80
2024/03/28 01:50:31;;;;;;;4.07;2.60;;;;;;;;;;680533;28;1822;-80
2024/03/28 01:50:52;;;;;;;3.92;2.50;;;;;;;;;;680758;29;1219;-80
2024/03/28 01:51:13;;;;;;;4.15;2.50;;;;;;;;;;680899;28;1347;-79
2024/03/28 01:51:33;;;;;;;4.20;2.63;;;;;;;;;;682693;28;1604;-80
2024/03/28 01:51:54;;;;;;;3.90;2.57;;;;;;;;;;684102;28;4493;-80
2024/03/28 01:52:15;;;;;;;4.38;2.70;;;;;;;;;;684088;28;992;-80
2024/03/28 01:52:35;;;;;;;4.60;2.80;;;;;;;;;;684344;28;1706;-80
2024/03/28 01:52:55;;;;;;;4.47;2.73;;;;;;;;;;683563;28;1337;-79
2024/03/28 01:53:16;;;;;;;4.13;2.70;;;;;;;;;;684841;28;1270;-80
2024/03/28 01:53:37;;;;;;;4.13;2.40;;;;;;;;;;684134;28;1803;-80
2024/03/28 01:53:58;;;;;;;4.25;2.50;;;;;;;;;;682084;29;1509;-79
2024/03/28 01:54:18;;;;;;;4.15;2.58;;;;;;;;;;684619;28;1323;-80
2024/03/28 01:54:39;;;;;;;4.50;2.67;;;;;;;;;;686327;28;1208;-80
2024/03/28 01:55:00;;;;;;;4.88;2.58;;;;;;;;;;687329;28;4274;-80
2024/03/28 01:55:21;;;;;;;4.47;2.72;;;;;;;;;;679908;28;1865;-79
2024/03/28 01:55:41;;;;;;;5.07;2.80;;;;;;;;;;678839;29;1608;-80
2024/03/28 01:56:04;;;;;;;4.70;2.65;;;;;;;;;;678758;29;1327;-80
2024/03/28 01:56:24;;;;;;;5.20;2.70;;;;;;;;;;680358;28;1715;-79
2024/03/28 01:56:45;;;;;;;4.50;2.67;;;;;;;;;;681076;29;870;-80
2024/03/28 01:57:07;;;;;;;4.60;2.70;;;;;;;;;;682979;28;1232;-80
2024/03/28 01:57:28;;;;;;;5.32;2.80;;;;;;;;;;684066;28;1866;-80
2024/03/28 01:57:49;;;;;;;4.65;2.60;;;;;;;;;;683344;28;842;-79
2024/03/28 01:58:10;;;;;;;4.50;2.85;;;;;;;;;;683302;28;4271;-81
2024/03/28 01:58:33;;;;;;;4.65;2.92;;;;;;;;;;681530;28;1435;-79
2024/03/28 01:58:56;;;;;;;4.70;3.00;;;;;;;;;;678630;29;1559;-79
2024/03/28 01:59:16;;;;;;;4.85;2.80;;;;;;;;;;680402;29;1144;-80
2024/03/28 01:59:38;;;;;;;4.30;2.60;;;;;;;;;;677326;29;1962;-79
2024/03/28 02:00:01;;;;;;;4.75;2.85;;;;;;;;;;678375;29;1586;-80
2024/03/28 02:00:21;;;;;;;5.40;2.80;;;;;;;;;;682439;28;1423;-80
2024/03/28 02:00:45;;;;;;;5.55;2.70;;;;;;;;;;682003;28;1472;-79
2024/03/28 02:02:14;;;;;;;4.25;2.50;;;;;;;;;;683891;28;1835;-67
2024/03/28 02:02:35;;;;;;;4.47;2.53;;;;;;;;;;684792;28;1772;-68
2024/03/28 02:02:55;;;;;;;4.75;2.58;;;;;;;;;;689806;28;3244;-67
2024/03/28 02:03:15;;;;;;;4.72;2.80;;;;;;;;;;691368;28;955;-66
2024/03/28 02:03:36;;;;;;;4.60;2.90;;;;;;;;;;688888;28;1132;-67
2024/03/28 02:03:57;;;;;;;4.45;2.83;;;;;;;;;;689275;28;1556;-67
2024/03/28 02:04:18;;;;;;;4.93;2.80;;;;;;;;;;688745;28;4191;-68
2024/03/28 02:04:38;;;;;;;5.97;2.83;;;;;;;;;;686825;28;2424;-68
2024/03/28 02:04:59;;;;;;;5.37;2.83;;;;;;;;;;687970;28;2205;-68
2024/03/28 02:05:19;;;;;;;5.55;2.95;;;;;;;;;;690190;28;1158;-68
2024/03/28 02:05:40;;;;;;;4.40;2.70;;;;;;;;;;692729;28;1285;-69
2024/03/28 02:06:01;;;;;;;4.50;2.83;;;;;;;;;;689805;28;1340;-68
2024/03/28 02:06:21;;;;;;;4.43;2.70;;;;;;;;;;691673;28;1718;-68
2024/03/28 02:06:42;;;;;;;4.72;2.80;;;;;;;;;;689404;28;1088;-68
2024/03/28 02:07:02;;;;;;;5.50;3.00;;;;;;;;;;686906;28;4275;-68
2024/03/28 02:07:22;;;;;;;5.07;2.70;;;;;;;;;;686827;28;1766;-68
2024/03/28 02:07:42;;;;;;;5.00;2.65;;;;;;;;;;690387;28;761;-67
2024/03/28 02:08:03;;;;;;;5.73;2.70;;;;;;;;;;689959;28;943;-67
2024/03/28 02:08:23;;;;;;;4.50;2.70;;;;;;;;;;688729;28;1470;-68
2024/03/28 02:08:43;;;;;;;4.73;2.87;;;;;;;;;;689593;28;774;-68
2024/03/28 02:09:05;;;;;;;5.17;2.80;;;;;;;;;;692776;28;1079;-67
2024/03/28 02:09:25;;;;;;;4.63;2.80;;;;;;;;;;690970;28;1777;-68
2024/03/28 02:09:46;;;;;;;4.25;2.67;;;;;;;;;;693151;28;843;-68
2024/03/28 02:10:06;;;;;;;4.40;2.70;;;;;;;;;;692025;28;4269;-67